createdAt,value
2018-07-07T00:01:09.579Z,6.27
2018-07-07T00:03:13.465Z,6.17
2018-07-07T00:05:17.446Z,6.03
2018-07-07T00:07:21.435Z,6.30
2018-07-07T00:09:25.298Z,6.00
2018-07-07T00:11:29.346Z,5.60
2018-07-07T00:13:33.732Z,5.03
2018-07-07T00:15:37.722Z,5.20
2018-07-07T00:17:42.282Z,5.30
2018-07-07T00:19:49.199Z,5.03
2018-07-07T00:21:53.839Z,5.83
2018-07-07T00:23:58.810Z,5.70
2018-07-07T00:26:04.213Z,6.20
2018-07-07T00:28:08.850Z,5.20
2018-07-07T00:30:15.622Z,5.63
2018-07-07T00:32:19.845Z,4.93
2018-07-07T00:34:23.921Z,5.27
2018-07-07T00:36:27.828Z,5.53
2018-07-07T00:38:32.596Z,5.20
2018-07-07T00:40:36.546Z,5.30
2018-07-07T00:42:40.789Z,5.30
2018-07-07T00:44:47.340Z,5.60
2018-07-07T00:46:51.738Z,5.90
2018-07-07T00:48:57.426Z,5.90
2018-07-07T00:51:01.793Z,6.37
2018-07-07T00:53:07.298Z,5.77
2018-07-07T00:55:11.683Z,5.97
2018-07-07T00:57:16.717Z,5.53
2018-07-07T00:59:20.761Z,5.80
2018-07-07T01:01:27.584Z,6.17
2018-07-07T01:03:32.557Z,5.70
2018-07-07T01:05:37.919Z,5.60
2018-07-07T01:07:41.401Z,5.57
2018-07-07T01:09:46.683Z,5.73
2018-07-07T01:11:50.579Z,5.33
2018-07-07T01:13:54.760Z,5.23
2018-07-07T01:15:58.614Z,5.83
2018-07-07T01:18:02.690Z,5.27
2018-07-07T01:20:06.830Z,5.67
2018-07-07T01:22:13.428Z,5.10
2018-07-07T01:24:18.426Z,5.97
2018-07-07T01:26:23.265Z,5.33
2018-07-07T01:28:31.313Z,5.70
2018-07-07T01:30:35.305Z,5.47
2018-07-07T01:32:39.564Z,5.37
2018-07-07T01:34:47.019Z,5.57
2018-07-07T01:36:54.302Z,6.27
2018-07-07T01:38:58.194Z,5.30
2018-07-07T01:41:02.417Z,5.77
2018-07-07T01:43:07.303Z,5.50
2018-07-07T01:45:13.175Z,5.53
2018-07-07T01:47:18.111Z,5.67
2018-07-07T01:49:21.953Z,5.50
2018-07-07T01:51:26.640Z,6.10
2018-07-07T01:53:31.968Z,5.33
2018-07-07T01:55:37.152Z,5.43
2018-07-07T01:57:41.335Z,5.80
2018-07-07T01:59:46.167Z,5.33
2018-07-07T02:01:51.399Z,5.53
2018-07-07T02:03:57.363Z,5.90
2018-07-07T02:06:02.629Z,5.70
2018-07-07T02:08:06.737Z,5.47
2018-07-07T02:10:11.274Z,5.63
2018-07-07T02:12:15.109Z,5.77
2018-07-07T02:14:19.000Z,5.97
2018-07-07T02:16:22.919Z,6.10
2018-07-07T02:18:28.313Z,5.63
2018-07-07T02:20:32.232Z,5.60
2018-07-07T02:22:36.037Z,6.00
2018-07-07T02:24:39.844Z,5.43
2018-07-07T02:26:43.759Z,6.27
2018-07-07T02:28:47.807Z,5.80
2018-07-07T02:30:53.050Z,5.70
2018-07-07T02:32:56.897Z,5.80
2018-07-07T02:35:00.821Z,6.20
2018-07-07T02:37:06.086Z,6.20
2018-07-07T02:39:10.037Z,5.47
2018-07-07T02:41:14.065Z,6.10
2018-07-07T02:43:19.446Z,5.83
2018-07-07T02:45:25.315Z,6.10
2018-07-07T02:47:28.807Z,6.07
2018-07-07T02:49:34.228Z,5.90
2018-07-07T02:51:38.400Z,6.40
2018-07-07T02:53:42.488Z,6.17
2018-07-07T02:55:46.827Z,5.80
2018-07-07T02:57:50.822Z,5.97
2018-07-07T02:59:54.914Z,6.03
2018-07-07T03:01:59.326Z,5.83
2018-07-07T03:04:03.423Z,6.00
2018-07-07T03:06:07.381Z,5.67
2018-07-07T03:08:11.343Z,5.93
2018-07-07T03:10:15.787Z,6.67
2018-07-07T03:12:19.847Z,6.40
2018-07-07T03:14:24.183Z,5.63
2018-07-07T03:16:28.368Z,6.03
2018-07-07T03:18:32.260Z,5.60
2018-07-07T03:20:36.775Z,6.00
2018-07-07T03:22:40.640Z,6.10
2018-07-07T03:24:44.579Z,6.30
2018-07-07T03:26:48.817Z,5.83
2018-07-07T03:28:52.732Z,5.43
2018-07-07T03:30:56.653Z,5.50
2018-07-07T03:33:00.564Z,5.50
2018-07-07T03:35:04.689Z,5.40
2018-07-07T03:37:08.207Z,5.53
2018-07-07T03:39:12.405Z,5.90
2018-07-07T03:41:16.257Z,5.33
2018-07-07T03:43:20.079Z,4.90
2018-07-07T03:45:24.225Z,5.93
2018-07-07T03:47:28.152Z,5.40
2018-07-07T03:49:32.076Z,5.33
2018-07-07T03:51:36.844Z,5.93
2018-07-07T03:53:40.929Z,5.43
2018-07-07T03:55:44.985Z,5.57
2018-07-07T03:57:49.396Z,5.40
2018-07-07T03:59:53.256Z,5.37
2018-07-07T04:01:57.204Z,5.10
2018-07-07T04:04:01.434Z,5.40
2018-07-07T04:06:05.941Z,6.07
2018-07-07T04:08:10.127Z,5.20
2018-07-07T04:10:15.484Z,6.20
2018-07-07T04:12:19.057Z,5.93
2018-07-07T04:14:23.357Z,6.07
2018-07-07T04:16:27.871Z,5.83
2018-07-07T04:18:33.870Z,5.83
2018-07-07T04:20:37.783Z,6.03
2018-07-07T04:22:42.132Z,6.07
2018-07-07T04:24:47.491Z,6.23
2018-07-07T04:26:52.018Z,5.90
2018-07-07T04:28:56.114Z,5.73
2018-07-07T04:31:00.579Z,6.23
2018-07-07T04:33:04.405Z,5.90
2018-07-07T04:35:09.218Z,6.13
2018-07-07T04:37:13.254Z,6.07
2018-07-07T04:39:17.540Z,5.90
2018-07-07T04:41:22.669Z,6.13
2018-07-07T04:43:26.999Z,5.93
2018-07-07T04:45:32.129Z,5.67
2018-07-07T04:47:36.994Z,6.30
2018-07-07T04:49:41.571Z,6.10
2018-07-07T04:51:45.503Z,6.00
2018-07-07T04:53:50.242Z,6.30
2018-07-07T04:55:54.211Z,6.17
2018-07-07T04:57:58.120Z,6.00
2018-07-07T05:00:05.199Z,6.50
2018-07-07T05:02:09.090Z,6.63
2018-07-07T05:04:16.573Z,6.47
2018-07-07T05:06:21.850Z,6.30
2018-07-07T05:08:25.705Z,6.37
2018-07-07T05:10:29.678Z,6.20
2018-07-07T05:12:33.846Z,6.57
2018-07-07T05:14:37.717Z,6.40
2018-07-07T05:16:42.280Z,6.40
2018-07-07T05:18:48.559Z,6.50
2018-07-07T05:20:52.608Z,6.67
2018-07-07T05:22:56.467Z,6.40
2018-07-07T05:25:00.663Z,6.60
2018-07-07T05:27:04.515Z,6.57
2018-07-07T05:29:08.427Z,5.93
2018-07-07T05:33:37.579Z,6.33
2018-07-07T05:35:41.455Z,6.23
2018-07-07T05:37:46.853Z,5.87
2018-07-07T05:39:50.296Z,6.17
2018-07-07T05:41:55.117Z,5.43
2018-07-07T05:44:04.977Z,5.57
2018-07-07T05:46:08.850Z,5.40
2018-07-07T05:48:12.806Z,5.27
2018-07-07T05:50:17.155Z,5.50
2018-07-07T05:52:21.154Z,5.70
2018-07-07T05:54:25.223Z,5.13
2018-07-07T05:56:30.109Z,5.23
2018-07-07T05:58:34.145Z,4.80
2018-07-07T06:00:38.080Z,4.80
2018-07-07T06:02:43.930Z,5.40
2018-07-07T06:04:48.807Z,5.07
2018-07-07T06:06:52.776Z,4.20
2018-07-07T06:09:03.513Z,4.00
2018-07-07T06:11:07.479Z,4.53
2018-07-07T06:13:13.866Z,4.47
2018-07-07T06:15:18.018Z,4.57
2018-07-07T06:17:23.108Z,4.10
2018-07-07T06:19:27.847Z,3.67
2018-07-07T06:21:33.880Z,3.77
2018-07-07T06:23:37.828Z,3.63
2018-07-07T06:25:42.649Z,3.93
2018-07-07T06:27:46.941Z,4.20
2018-07-07T06:29:54.428Z,3.87
2018-07-07T06:31:59.627Z,3.90
2018-07-07T06:34:04.609Z,3.33
2018-07-07T06:36:08.564Z,3.47
2018-07-07T06:38:12.612Z,3.33
2018-07-07T06:42:29.244Z,2.73
2018-07-07T06:44:33.837Z,2.97
2018-07-07T06:46:39.309Z,3.20
2018-07-07T06:48:43.261Z,3.10
2018-07-07T06:50:47.173Z,2.43
2018-07-07T06:52:52.400Z,2.90
2018-07-07T06:54:56.333Z,2.73
2018-07-07T06:57:00.231Z,2.20
2018-07-07T06:59:04.501Z,3.03
2018-07-07T07:01:14.542Z,2.37
2018-07-07T07:03:18.518Z,2.57
2018-07-07T07:05:22.475Z,2.90
2018-07-07T07:07:26.348Z,2.40
2018-07-07T07:09:30.219Z,2.33
2018-07-07T07:11:37.429Z,2.70
2018-07-07T07:13:41.281Z,2.40
2018-07-07T07:15:46.853Z,2.73
2018-07-07T07:17:50.762Z,2.50
2018-07-07T07:19:54.789Z,2.50
2018-07-07T07:22:03.252Z,2.80
2018-07-07T07:24:07.517Z,2.67
2018-07-07T07:26:12.003Z,2.37
2018-07-07T07:28:16.287Z,2.30
2018-07-07T07:30:21.302Z,2.13
2018-07-07T07:32:25.443Z,2.57
2018-07-07T07:34:30.042Z,2.07
2018-07-07T07:36:42.588Z,2.00
2018-07-07T07:38:46.765Z,2.10
2018-07-07T07:40:51.537Z,2.00
2018-07-07T07:42:56.778Z,1.83
2018-07-07T07:45:03.351Z,1.60
2018-07-07T07:47:07.871Z,1.60
2018-07-07T07:49:12.761Z,2.10
2018-07-07T07:51:16.608Z,1.80
2018-07-07T07:53:22.344Z,1.90
2018-07-07T07:55:26.809Z,1.73
2018-07-07T07:57:31.567Z,2.20
2018-07-07T07:59:35.529Z,2.10
2018-07-07T08:01:39.430Z,1.90
2018-07-07T08:03:44.035Z,2.43
2018-07-07T08:05:48.375Z,2.00
2018-07-07T08:07:53.022Z,2.00
2018-07-07T08:09:57.618Z,2.30
2018-07-07T08:12:01.597Z,2.20
2018-07-07T08:14:06.516Z,2.00
2018-07-07T08:16:11.742Z,2.20
2018-07-07T08:18:15.711Z,2.22
2018-07-07T08:20:19.916Z,2.20
2018-07-07T08:22:23.829Z,2.10
2018-07-07T08:24:27.781Z,2.10
2018-07-07T08:26:33.281Z,2.62
2018-07-07T08:28:37.209Z,2.00
2018-07-07T08:30:41.322Z,2.20
2018-07-07T08:32:47.682Z,2.05
2018-07-07T08:34:51.634Z,2.12
2018-07-07T08:36:57.671Z,2.42
2018-07-07T08:39:02.314Z,1.77
2018-07-07T08:41:13.632Z,2.10
2018-07-07T08:43:19.698Z,1.95
2018-07-07T08:45:25.504Z,2.00
2018-07-07T08:47:29.412Z,2.02
2018-07-07T08:49:33.828Z,2.85
2018-07-07T08:51:38.287Z,2.30
2018-07-07T08:53:42.177Z,1.82
2018-07-07T08:55:46.445Z,2.30
2018-07-07T08:58:04.785Z,2.20
2018-07-07T09:00:10.519Z,2.20
2018-07-07T09:04:18.802Z,2.60
2018-07-07T09:06:24.166Z,2.58
2018-07-07T09:08:28.716Z,2.27
2018-07-07T09:10:34.680Z,2.75
2018-07-07T09:12:39.458Z,2.65
2018-07-07T09:14:43.806Z,2.92
2018-07-07T09:16:48.092Z,2.70
2018-07-07T09:18:52.071Z,2.90
2018-07-07T09:20:56.105Z,3.17
2018-07-07T09:23:00.254Z,2.87
2018-07-07T09:25:04.564Z,2.80
2018-07-07T09:27:09.209Z,2.90
2018-07-07T09:29:15.739Z,3.15
2018-07-07T09:31:19.836Z,2.70
2018-07-07T09:33:25.662Z,3.40
2018-07-07T09:35:33.288Z,3.90
2018-07-07T09:37:37.944Z,3.60
2018-07-07T09:39:41.816Z,3.08
2018-07-07T09:41:48.444Z,3.15
2018-07-07T09:43:55.399Z,3.10
2018-07-07T09:46:00.723Z,3.25
2018-07-07T09:48:06.784Z,3.37
2018-07-07T09:50:11.348Z,3.50
2018-07-07T09:52:16.202Z,3.42
2018-07-07T09:54:23.317Z,3.83
2018-07-07T09:56:34.277Z,3.65
2018-07-07T09:58:40.947Z,3.70
2018-07-07T10:00:46.478Z,4.08
2018-07-07T10:02:51.126Z,4.62
2018-07-07T10:04:57.351Z,4.20
2018-07-07T10:07:06.749Z,4.67
2018-07-07T10:09:11.564Z,4.60
2018-07-07T10:11:19.963Z,5.00
2018-07-07T10:13:26.888Z,5.08
2018-07-07T10:15:31.380Z,4.87
2018-07-07T10:17:36.046Z,5.20
2018-07-07T10:19:40.393Z,4.90
2018-07-07T10:21:44.589Z,5.75
2018-07-07T10:23:49.151Z,5.05
2018-07-07T10:25:54.431Z,5.00
2018-07-07T10:27:58.264Z,5.03
2018-07-07T10:30:07.876Z,5.47
2018-07-07T10:32:12.971Z,5.28
2018-07-07T10:34:20.673Z,5.20
2018-07-07T10:36:26.221Z,5.37
2018-07-07T10:40:43.448Z,5.92
2018-07-07T10:42:52.468Z,5.58
2018-07-07T10:44:59.239Z,4.90
2018-07-07T10:47:07.011Z,5.42
2018-07-07T10:49:14.390Z,5.78
2018-07-07T10:51:18.764Z,6.35
2018-07-07T10:53:23.520Z,5.65
2018-07-07T10:55:29.046Z,5.17
2018-07-07T10:57:33.860Z,5.40
2018-07-07T10:59:42.698Z,4.90
2018-07-07T11:01:48.700Z,6.25
2018-07-07T11:03:53.083Z,5.80
2018-07-07T11:05:58.631Z,6.15
2018-07-07T11:08:04.908Z,5.55
2018-07-07T11:10:09.323Z,4.97
2018-07-07T11:12:13.379Z,5.08
2018-07-07T11:14:18.852Z,5.00
2018-07-07T11:16:23.070Z,4.87
2018-07-07T11:18:26.926Z,4.78
2018-07-07T11:20:30.892Z,3.95
2018-07-07T11:22:35.217Z,4.22
2018-07-07T11:24:39.132Z,4.45
2018-07-07T11:26:43.721Z,4.58
2018-07-07T11:28:49.178Z,4.75
2018-07-07T11:30:53.096Z,4.58
2018-07-07T11:32:59.324Z,4.58
2018-07-07T11:35:05.612Z,4.90
2018-07-07T11:37:11.507Z,4.67
2018-07-07T11:39:19.183Z,4.47
2018-07-07T11:41:25.285Z,4.35
2018-07-07T11:43:30.291Z,4.30
2018-07-07T11:45:35.830Z,3.85
2018-07-07T11:47:41.125Z,3.75
2018-07-07T11:49:46.361Z,3.98
2018-07-07T11:51:49.850Z,3.80
2018-07-07T11:53:53.602Z,4.00
2018-07-07T11:56:00.167Z,3.92
2018-07-07T11:58:04.223Z,3.85
2018-07-07T12:00:09.698Z,3.95
2018-07-07T12:02:14.651Z,3.55
2018-07-07T12:04:18.564Z,4.15
2018-07-07T12:06:24.593Z,4.03
2018-07-07T12:08:28.560Z,4.87
2018-07-07T12:10:34.271Z,4.30
2018-07-07T12:12:44.739Z,3.98
2018-07-07T12:14:51.563Z,4.50
2018-07-07T12:16:55.529Z,4.15
2018-07-07T12:19:02.822Z,4.33
2018-07-07T12:21:06.692Z,4.30
2018-07-07T12:23:19.381Z,4.35
2018-07-07T12:25:25.276Z,4.67
2018-07-07T12:27:32.374Z,4.58
2018-07-07T12:29:37.220Z,4.60
2018-07-07T12:31:42.588Z,4.97
2018-07-07T12:33:49.768Z,4.58
2018-07-07T12:35:53.652Z,4.72
2018-07-07T12:38:00.311Z,4.90
2018-07-07T12:40:04.823Z,5.00
2018-07-07T12:42:11.214Z,4.67
2018-07-07T12:44:16.454Z,4.60
2018-07-07T12:46:21.279Z,4.65
2018-07-07T12:48:26.235Z,4.22
2018-07-07T12:50:31.999Z,4.22
2018-07-07T12:52:37.632Z,3.92
2018-07-07T12:54:44.279Z,4.00
2018-07-07T12:56:49.077Z,4.00
2018-07-07T12:58:54.345Z,4.35
2018-07-07T13:00:59.965Z,4.30
2018-07-07T13:03:04.304Z,4.08
2018-07-07T13:05:08.979Z,4.10
2018-07-07T13:07:12.979Z,4.22
2018-07-07T13:09:17.407Z,3.72
2018-07-07T13:11:23.044Z,4.08
2018-07-07T13:13:28.137Z,3.52
2018-07-07T13:15:32.074Z,4.00
2018-07-07T13:17:42.561Z,4.33
2018-07-07T13:19:50.521Z,3.90
2018-07-07T13:21:55.984Z,3.70
2018-07-07T13:24:00.578Z,3.77
2018-07-07T13:26:07.159Z,3.42
2018-07-07T13:28:11.086Z,3.55
2018-07-07T13:30:20.734Z,3.60
2018-07-07T13:32:30.799Z,3.90
2018-07-07T13:34:35.270Z,3.60
2018-07-07T13:36:45.071Z,3.67
2018-07-07T13:38:49.870Z,3.52
2018-07-07T13:40:55.848Z,3.58
2018-07-07T13:43:00.765Z,3.50
2018-07-07T13:45:06.608Z,3.35
2018-07-07T13:47:10.612Z,3.50
2018-07-07T13:49:15.256Z,3.40
2018-07-07T13:51:19.280Z,3.67
2018-07-07T13:53:23.958Z,3.77
2018-07-07T13:55:28.237Z,3.40
2018-07-07T13:57:32.524Z,3.47
2018-07-07T13:59:37.580Z,3.47
2018-07-07T14:01:50.436Z,3.02
2018-07-07T14:03:57.405Z,2.65
2018-07-07T14:06:04.802Z,3.50
2018-07-07T14:08:11.690Z,3.10
2018-07-07T14:10:16.995Z,3.80
2018-07-07T14:12:22.779Z,3.25
2018-07-07T14:14:31.809Z,3.90
2018-07-07T14:16:38.882Z,3.80
2018-07-07T14:18:43.419Z,3.62
2018-07-07T14:20:50.463Z,3.30
2018-07-07T14:22:55.677Z,3.17
2018-07-07T14:25:01.517Z,3.20
2018-07-07T14:27:07.981Z,3.40
2018-07-07T14:29:12.519Z,3.45
2018-07-07T14:31:16.772Z,3.30
2018-07-07T14:33:28.157Z,3.42
2018-07-07T14:35:36.499Z,3.12
2018-07-07T14:37:47.200Z,3.25
2018-07-07T14:39:57.232Z,3.15
2018-07-07T14:42:22.516Z,2.90
2018-07-07T14:44:26.894Z,2.83
2018-07-07T14:46:31.905Z,3.20
2018-07-07T14:48:36.413Z,3.08
2018-07-07T14:50:42.676Z,3.30
2018-07-07T14:52:47.382Z,2.70
2018-07-07T14:54:52.789Z,2.70
2018-07-07T14:56:58.274Z,2.60
2018-07-07T14:59:04.078Z,2.58
2018-07-07T15:01:08.579Z,2.47
2018-07-07T15:03:12.694Z,2.22
2018-07-07T15:05:20.302Z,2.40
2018-07-07T15:07:24.295Z,2.75
2018-07-07T15:09:32.539Z,2.80
2018-07-07T15:11:38.604Z,2.60
2018-07-07T15:13:44.588Z,2.65
2018-07-07T15:15:50.617Z,2.80
2018-07-07T15:17:58.253Z,2.50
2018-07-07T15:20:03.757Z,2.80
2018-07-07T15:22:09.202Z,2.33
2018-07-07T15:24:13.727Z,2.60
2018-07-07T15:26:18.728Z,2.58
2018-07-07T15:28:23.282Z,2.40
2018-07-07T15:30:36.754Z,2.20
2018-07-07T15:32:41.476Z,2.27
2018-07-07T15:34:47.654Z,2.80
2018-07-07T15:36:55.287Z,2.30
2018-07-07T15:39:01.799Z,2.02
2018-07-07T15:41:05.767Z,2.40
2018-07-07T15:43:10.240Z,2.27
2018-07-07T15:45:15.539Z,2.35
2018-07-07T15:47:21.131Z,2.20
2018-07-07T15:49:26.561Z,2.08
2018-07-07T15:51:31.437Z,2.35
2018-07-07T15:53:36.173Z,2.30
2018-07-07T15:55:41.556Z,1.82
2018-07-07T15:57:46.658Z,1.95
2018-07-07T15:59:52.258Z,1.90
2018-07-07T16:01:57.333Z,1.67
2018-07-07T16:04:01.856Z,2.22
2018-07-07T16:06:06.150Z,2.05
2018-07-07T16:08:12.060Z,1.98
2018-07-07T16:10:16.007Z,1.90
2018-07-07T16:12:21.145Z,1.67
2018-07-07T16:14:25.538Z,1.90
2018-07-07T16:16:30.404Z,2.27
2018-07-07T16:18:35.315Z,2.20
2018-07-07T16:20:40.593Z,2.17
2018-07-07T16:22:45.170Z,1.82
2018-07-07T16:24:51.323Z,1.70
2018-07-07T16:26:57.610Z,1.95
2018-07-07T16:29:02.598Z,1.72
2018-07-07T16:31:08.447Z,1.80
2018-07-07T16:33:14.292Z,1.80
2018-07-07T16:35:19.676Z,1.80
2018-07-07T16:37:24.840Z,1.80
2018-07-07T16:39:30.379Z,2.10
2018-07-07T16:41:35.091Z,1.75
2018-07-07T16:43:39.896Z,1.92
2018-07-07T16:45:44.481Z,2.20
2018-07-07T16:47:48.920Z,2.00
2018-07-07T16:49:52.390Z,1.87
2018-07-07T16:51:56.807Z,2.10
2018-07-07T16:54:02.121Z,1.80
2018-07-07T16:56:06.635Z,1.57
2018-07-07T16:58:12.582Z,1.70
2018-07-07T17:00:18.807Z,1.90
2018-07-07T17:02:23.806Z,1.90
2018-07-07T17:04:28.992Z,2.10
2018-07-07T17:06:33.338Z,1.80
2018-07-07T17:10:38.362Z,2.17
2018-07-07T17:12:43.351Z,2.02
2018-07-07T17:14:51.208Z,1.80
2018-07-07T17:16:56.176Z,1.67
2018-07-07T17:19:02.306Z,2.12
2018-07-07T17:21:07.452Z,1.80
2018-07-07T17:23:12.318Z,1.92
2018-07-07T17:25:17.059Z,1.90
2018-07-07T17:27:21.510Z,2.00
2018-07-07T17:31:43.756Z,2.12
2018-07-07T17:33:50.133Z,1.70
2018-07-07T17:35:56.200Z,1.40
2018-07-07T17:38:02.807Z,2.05
2018-07-07T17:40:07.812Z,1.90
2018-07-07T17:42:13.583Z,1.72
2018-07-07T17:44:18.107Z,2.00
2018-07-07T17:46:29.522Z,2.12
2018-07-07T17:48:34.468Z,1.70
2018-07-07T17:50:38.688Z,2.27
2018-07-07T17:52:43.240Z,1.80
2018-07-07T17:54:48.332Z,1.80
2018-07-07T17:56:52.592Z,1.87
2018-07-07T17:58:58.220Z,1.75
2018-07-07T18:01:03.783Z,1.50
2018-07-07T18:03:08.119Z,1.60
2018-07-07T18:05:12.876Z,1.70
2018-07-07T18:07:18.029Z,2.08
2018-07-07T18:09:22.052Z,1.67
2018-07-07T18:11:27.089Z,1.60
2018-07-07T18:13:31.668Z,1.70
2018-07-07T18:15:36.816Z,1.85
2018-07-07T18:17:43.768Z,1.70
2018-07-07T18:19:54.706Z,1.80
2018-07-07T18:22:00.385Z,1.40
2018-07-07T18:24:05.771Z,1.67
2018-07-07T18:26:13.504Z,2.08
2018-07-07T18:28:17.730Z,1.92
2018-07-07T18:30:23.418Z,2.00
2018-07-07T18:32:29.251Z,1.95
2018-07-07T18:34:34.578Z,1.98
2018-07-07T18:36:40.966Z,1.80
2018-07-07T18:38:47.634Z,1.60
2018-07-07T18:40:55.480Z,1.67
2018-07-07T18:43:05.652Z,1.82
2018-07-07T18:45:12.630Z,2.27
2018-07-07T18:47:17.446Z,1.93
2018-07-07T18:49:25.683Z,2.20
2018-07-07T18:51:32.378Z,2.10
2018-07-07T18:53:39.450Z,2.15
2018-07-07T18:55:45.887Z,2.00
2018-07-07T18:57:52.293Z,2.37
2018-07-07T18:59:58.137Z,2.20
2018-07-07T19:02:13.367Z,2.00
2018-07-07T19:04:19.407Z,2.33
2018-07-07T19:06:30.929Z,2.07
2018-07-07T19:08:41.338Z,2.00
2018-07-07T19:10:51.249Z,2.27
2018-07-07T19:12:56.866Z,2.07
2018-07-07T19:15:07.908Z,2.43
2018-07-07T19:17:13.556Z,2.20
2018-07-07T19:19:21.354Z,2.37
2018-07-07T19:21:34.344Z,2.07
2018-07-07T19:23:44.463Z,2.10
2018-07-07T19:25:56.883Z,2.37
2018-07-07T19:28:05.446Z,2.20
2018-07-07T19:30:13.524Z,2.63
2018-07-07T19:32:28.090Z,2.37
2018-07-07T19:34:39.241Z,2.30
2018-07-07T19:37:51.353Z,2.20
2018-07-07T19:39:59.882Z,2.30
2018-07-07T19:42:06.664Z,2.20
2018-07-07T19:44:12.621Z,2.37
2018-07-07T19:46:18.856Z,2.57
2018-07-07T19:48:24.468Z,2.50
2018-07-07T19:50:29.136Z,2.57
2018-07-07T19:52:35.558Z,2.20
2018-07-07T19:54:43.011Z,2.30
2018-07-07T19:56:48.790Z,2.60
2018-07-07T19:58:55.686Z,2.40
2018-07-07T20:01:02.261Z,2.50
2018-07-07T20:03:11.618Z,2.83
2018-07-07T20:05:21.016Z,2.43
2018-07-07T20:07:28.237Z,2.50
2018-07-07T20:09:33.099Z,2.23
2018-07-07T20:11:40.157Z,2.17
2018-07-07T20:13:54.712Z,2.30
2018-07-07T20:16:14.903Z,2.40
2018-07-07T20:18:23.488Z,2.70
2018-07-07T20:20:41.293Z,2.40
2018-07-07T20:22:48.463Z,2.60
2018-07-07T20:24:55.426Z,2.43
2018-07-07T20:27:07.147Z,2.33
2018-07-07T20:29:14.509Z,2.50
2018-07-07T20:31:21.102Z,2.60
2018-07-07T20:33:28.957Z,2.93
2018-07-07T20:35:33.694Z,2.23
2018-07-07T20:37:41.747Z,2.73
2018-07-07T20:39:48.339Z,2.80
2018-07-07T20:41:57.771Z,2.50
2018-07-07T20:44:05.830Z,3.00
2018-07-07T20:46:10.752Z,3.00
2018-07-07T20:48:18.208Z,2.60
2018-07-07T20:50:24.596Z,3.07
2018-07-07T20:52:32.312Z,2.77
2018-07-07T20:54:39.906Z,2.63
2018-07-07T20:56:48.581Z,2.33
2018-07-07T20:58:55.633Z,3.00
2018-07-07T21:01:01.614Z,2.77
2018-07-07T21:03:17.157Z,2.60
2018-07-07T21:05:23.724Z,2.70
2018-07-07T21:07:35.876Z,2.40
2018-07-07T21:09:43.306Z,2.80
2018-07-07T21:11:47.801Z,2.20
2018-07-07T21:13:55.929Z,2.97
2018-07-07T21:16:05.716Z,2.83
2018-07-07T21:18:10.521Z,2.60
2018-07-07T21:20:20.670Z,2.70
2018-07-07T21:22:28.638Z,2.53
2018-07-07T21:24:33.818Z,2.90
2018-07-07T21:26:39.668Z,2.73
2018-07-07T21:28:49.702Z,3.10
2018-07-07T21:31:04.748Z,2.70
2018-07-07T21:33:13.593Z,2.80
2018-07-07T21:35:21.685Z,2.40
2018-07-07T21:37:26.791Z,2.60
2018-07-07T21:39:34.277Z,3.07
2018-07-07T21:41:39.069Z,3.10
2018-07-07T21:43:45.524Z,2.47
2018-07-07T21:45:52.042Z,2.67
2018-07-07T21:47:58.599Z,2.70
2018-07-07T21:50:07.862Z,2.67
2018-07-07T21:52:15.831Z,2.50
2018-07-07T21:54:21.212Z,2.70
2018-07-07T21:56:25.267Z,2.70
2018-07-07T21:58:31.717Z,2.50
2018-07-07T22:00:53.345Z,2.80
2018-07-07T22:03:03.617Z,2.43
2018-07-07T22:05:17.351Z,2.70
2018-07-07T22:07:28.212Z,2.33
2018-07-07T22:09:38.184Z,2.60
2018-07-07T22:11:44.945Z,2.67
2018-07-07T22:13:53.596Z,2.60
2018-07-07T22:16:04.654Z,2.80
2018-07-07T22:18:09.533Z,2.53
2018-07-07T22:20:37.132Z,2.53
2018-07-07T22:22:41.749Z,2.70
2018-07-07T22:24:46.053Z,2.60
2018-07-07T22:26:50.092Z,2.70
2018-07-07T22:28:55.082Z,2.80
2018-07-07T22:31:00.116Z,2.73
2018-07-07T22:33:10.103Z,2.90
2018-07-07T22:35:19.255Z,2.87
2018-07-07T22:37:23.824Z,2.70
2018-07-07T22:39:28.553Z,3.10
2018-07-07T22:42:14.276Z,2.57
2018-07-07T22:44:18.210Z,3.20
2018-07-07T22:46:22.992Z,2.60
2018-07-07T22:48:30.308Z,2.60
2018-07-07T22:50:36.141Z,3.07
2018-07-07T22:52:41.336Z,2.87
2018-07-07T22:54:45.214Z,2.60
2018-07-07T22:56:48.727Z,2.77
2018-07-07T22:58:54.484Z,2.73
2018-07-07T23:00:58.368Z,3.17
2018-07-07T23:03:02.707Z,3.07
2018-07-07T23:05:08.959Z,2.70
2018-07-07T23:07:16.243Z,2.70
2018-07-07T23:09:20.195Z,2.83
2018-07-07T23:11:24.188Z,3.13
2018-07-07T23:13:28.464Z,2.53
2018-07-07T23:15:32.363Z,2.67
2018-07-07T23:17:36.282Z,2.93
2018-07-07T23:19:44.536Z,2.93
2018-07-07T23:21:49.075Z,3.00
2018-07-07T23:23:53.397Z,2.87
2018-07-07T23:25:57.270Z,2.50
2018-07-07T23:28:03.029Z,2.70
2018-07-07T23:30:08.249Z,3.17
2018-07-07T23:32:15.757Z,2.40
2018-07-07T23:34:20.734Z,2.53
2018-07-07T23:36:25.404Z,2.60
2018-07-07T23:38:29.433Z,2.67
2018-07-07T23:40:33.711Z,3.20
2018-07-07T23:42:38.648Z,2.50
2018-07-07T23:44:42.610Z,3.10
2018-07-07T23:46:46.525Z,2.73
2018-07-07T23:48:55.074Z,3.27
2018-07-07T23:50:59.385Z,2.53
2018-07-07T23:53:03.301Z,2.93
2018-07-07T23:55:09.421Z,2.83
2018-07-07T23:57:13.747Z,3.20
2018-07-07T23:59:19.930Z,2.93
